sensor_id;sensor_type;location;lat;lon;timestamp;pressure;altitude;pressure_sealevel;temperature;humidity
70314;BME280;57725;47.526;18.986;2023-06-14T00:00:06;99562.88;;;17.59;64.73
70314;BME280;57725;47.526;18.986;2023-06-14T00:02:32;99564.91;;;17.55;65.37
70314;BME280;57725;47.526;18.986;2023-06-14T00:04:58;99560.81;;;17.51;64.68
70314;BME280;57725;47.526;18.986;2023-06-14T00:07:37;99559.03;;;17.52;66.51
70314;BME280;57725;47.526;18.986;2023-06-14T00:10:04;99564.78;;;17.57;67.86
70314;BME280;57725;47.526;18.986;2023-06-14T00:12:36;99559.50;;;17.57;67.64
70314;BME280;57725;47.526;18.986;2023-06-14T00:15:03;99562.63;;;17.51;65.02
70314;BME280;57725;47.526;18.986;2023-06-14T00:17:29;99552.63;;;17.43;66.19
70314;BME280;57725;47.526;18.986;2023-06-14T00:19:59;99556.28;;;17.53;68.03
70314;BME280;57725;47.526;18.986;2023-06-14T00:22:24;99566.81;;;17.42;66.41
70314;BME280;57725;47.526;18.986;2023-06-14T00:24:51;99559.38;;;17.47;68.83
70314;BME280;57725;47.526;18.986;2023-06-14T00:27:16;99569.59;;;17.52;68.63
70314;BME280;57725;47.526;18.986;2023-06-14T00:29:42;99566.44;;;17.47;65.94
70314;BME280;57725;47.526;18.986;2023-06-14T00:32:10;99566.69;;;17.44;64.74
70314;BME280;57725;47.526;18.986;2023-06-14T00:34:35;99576.06;;;17.48;68.47
70314;BME280;57725;47.526;18.986;2023-06-14T00:37:01;99576.19;;;17.46;67.39
70314;BME280;57725;47.526;18.986;2023-06-14T00:39:29;99575.69;;;17.41;65.47
70314;BME280;57725;47.526;18.986;2023-06-14T00:41:57;99574.75;;;17.42;66.32
70314;BME280;57725;47.526;18.986;2023-06-14T00:44:22;99577.31;;;17.31;65.20
70314;BME280;57725;47.526;18.986;2023-06-14T00:46:49;99581.41;;;17.24;67.32
70314;BME280;57725;47.526;18.986;2023-06-14T00:49:17;99564.47;;;17.26;67.15
70314;BME280;57725;47.526;18.986;2023-06-14T00:51:44;99578.47;;;17.40;69.96
70314;BME280;57725;47.526;18.986;2023-06-14T00:54:10;99585.88;;;17.34;67.92
70314;BME280;57725;47.526;18.986;2023-06-14T00:56:36;99583.81;;;17.27;66.62
70314;BME280;57725;47.526;18.986;2023-06-14T00:59:04;99581.91;;;17.29;70.20
70314;BME280;57725;47.526;18.986;2023-06-14T01:01:32;99572.66;;;17.34;67.61
70314;BME280;57725;47.526;18.986;2023-06-14T01:04:00;99573.03;;;17.30;70.04
70314;BME280;57725;47.526;18.986;2023-06-14T01:07:01;99580.56;;;17.23;67.55
70314;BME280;57725;47.526;18.986;2023-06-14T01:09:55;99570.47;;;17.17;66.51
70314;BME280;57725;47.526;18.986;2023-06-14T01:15:18;99570.09;;;17.22;67.97
70314;BME280;57725;47.526;18.986;2023-06-14T01:17:49;99568.66;;;17.18;68.22
70314;BME280;57725;47.526;18.986;2023-06-14T01:20:17;99564.91;;;17.20;69.58
70314;BME280;57725;47.526;18.986;2023-06-14T01:22:57;99560.97;;;17.15;69.54
70314;BME280;57725;47.526;18.986;2023-06-14T01:25:23;99562.97;;;17.11;67.68
70314;BME280;57725;47.526;18.986;2023-06-14T01:27:50;99572.59;;;17.12;69.04
70314;BME280;57725;47.526;18.986;2023-06-14T01:30:17;99561.66;;;17.06;68.08
70314;BME280;57725;47.526;18.986;2023-06-14T01:32:44;99563.50;;;17.16;70.86
70314;BME280;57725;47.526;18.986;2023-06-14T01:35:14;99561.44;;;17.20;69.93
70314;BME280;57725;47.526;18.986;2023-06-14T01:37:40;99564.28;;;17.06;67.73
70314;BME280;57725;47.526;18.986;2023-06-14T01:40:07;99571.84;;;17.10;68.96
70314;BME280;57725;47.526;18.986;2023-06-14T01:42:35;99560.41;;;16.98;69.18
70314;BME280;57725;47.526;18.986;2023-06-14T01:45:03;99572.06;;;16.96;68.84
70314;BME280;57725;47.526;18.986;2023-06-14T01:47:36;99570.75;;;17.01;68.64
70314;BME280;57725;47.526;18.986;2023-06-14T01:50:03;99581.63;;;16.97;69.45
70314;BME280;57725;47.526;18.986;2023-06-14T01:52:33;99584.16;;;16.98;68.29
70314;BME280;57725;47.526;18.986;2023-06-14T01:55:01;99572.66;;;16.99;69.33
70314;BME280;57725;47.526;18.986;2023-06-14T01:57:27;99568.22;;;17.00;70.91
70314;BME280;57725;47.526;18.986;2023-06-14T01:59:57;99580.31;;;16.91;67.86
70314;BME280;57725;47.526;18.986;2023-06-14T02:02:25;99582.19;;;16.89;68.73
70314;BME280;57725;47.526;18.986;2023-06-14T02:04:52;99579.88;;;16.85;69.33
70314;BME280;57725;47.526;18.986;2023-06-14T02:07:24;99579.97;;;16.72;69.76
70314;BME280;57725;47.526;18.986;2023-06-14T02:09:50;99587.53;;;16.77;70.67
70314;BME280;57725;47.526;18.986;2023-06-14T02:12:17;99587.09;;;16.83;70.07
70314;BME280;57725;47.526;18.986;2023-06-14T02:14:43;99580.91;;;16.71;69.23
70314;BME280;57725;47.526;18.986;2023-06-14T02:17:14;99591.66;;;16.81;70.31
70314;BME280;57725;47.526;18.986;2023-06-14T02:19:42;99594.28;;;16.81;70.44
70314;BME280;57725;47.526;18.986;2023-06-14T02:22:10;99589.44;;;16.75;70.60
70314;BME280;57725;47.526;18.986;2023-06-14T02:24:40;99589.91;;;16.69;67.46
70314;BME280;57725;47.526;18.986;2023-06-14T02:27:05;99589.69;;;16.72;68.24
70314;BME280;57725;47.526;18.986;2023-06-14T02:29:32;99587.03;;;16.72;73.31
70314;BME280;57725;47.526;18.986;2023-06-14T02:31:57;99585.84;;;16.76;70.70
70314;BME280;57725;47.526;18.986;2023-06-14T02:34:22;99588.00;;;16.71;69.67
70314;BME280;57725;47.526;18.986;2023-06-14T02:36:48;99581.63;;;16.73;71.30
70314;BME280;57725;47.526;18.986;2023-06-14T02:39:13;99582.81;;;16.69;70.14
70314;BME280;57725;47.526;18.986;2023-06-14T02:41:42;99588.47;;;16.76;72.82
70314;BME280;57725;47.526;18.986;2023-06-14T02:44:12;99583.72;;;16.81;70.79
70314;BME280;57725;47.526;18.986;2023-06-14T02:46:42;99589.16;;;16.67;70.01
70314;BME280;57725;47.526;18.986;2023-06-14T02:49:09;99581.88;;;16.70;71.09
70314;BME280;57725;47.526;18.986;2023-06-14T02:51:34;99584.16;;;16.75;73.11
70314;BME280;57725;47.526;18.986;2023-06-14T02:54:02;99581.56;;;16.62;70.83
70314;BME280;57725;47.526;18.986;2023-06-14T02:56:30;99583.56;;;16.58;74.92
70314;BME280;57725;47.526;18.986;2023-06-14T02:58:56;99578.50;;;16.68;73.91
70314;BME280;57725;47.526;18.986;2023-06-14T03:01:22;99576.16;;;16.63;70.79
70314;BME280;57725;47.526;18.986;2023-06-14T03:03:48;99576.38;;;16.60;71.27
70314;BME280;57725;47.526;18.986;2023-06-14T03:06:13;99577.25;;;16.48;68.53
70314;BME280;57725;47.526;18.986;2023-06-14T03:08:41;99577.16;;;16.50;70.44
70314;BME280;57725;47.526;18.986;2023-06-14T03:11:10;99581.13;;;16.55;71.20
70314;BME280;57725;47.526;18.986;2023-06-14T03:13:37;99579.44;;;16.54;73.62
70314;BME280;57725;47.526;18.986;2023-06-14T03:16:04;99578.59;;;16.54;69.09
70314;BME280;57725;47.526;18.986;2023-06-14T03:18:32;99582.53;;;16.48;69.09
70314;BME280;57725;47.526;18.986;2023-06-14T03:21:03;99577.56;;;16.56;74.71
70314;BME280;57725;47.526;18.986;2023-06-14T03:23:32;99582.28;;;16.64;72.44
70314;BME280;57725;47.526;18.986;2023-06-14T03:25:57;99578.81;;;16.51;72.11
70314;BME280;57725;47.526;18.986;2023-06-14T03:28:25;99580.63;;;16.50;69.45
70314;BME280;57725;47.526;18.986;2023-06-14T03:30:53;99578.50;;;16.55;73.45
70314;BME280;57725;47.526;18.986;2023-06-14T03:33:19;99581.25;;;16.54;72.20
70314;BME280;57725;47.526;18.986;2023-06-14T03:35:49;99586.19;;;16.58;72.88
70314;BME280;57725;47.526;18.986;2023-06-14T03:38:15;99579.91;;;16.48;70.49
70314;BME280;57725;47.526;18.986;2023-06-14T03:40:43;99574.63;;;16.48;70.81
70314;BME280;57725;47.526;18.986;2023-06-14T03:43:11;99580.00;;;16.47;71.02
70314;BME280;57725;47.526;18.986;2023-06-14T03:45:37;99583.47;;;16.60;73.67
70314;BME280;57725;47.526;18.986;2023-06-14T03:48:02;99580.28;;;16.55;73.91
70314;BME280;57725;47.526;18.986;2023-06-14T03:50:28;99580.41;;;16.53;70.88
70314;BME280;57725;47.526;18.986;2023-06-14T03:52:54;99587.16;;;16.57;71.85
70314;BME280;57725;47.526;18.986;2023-06-14T03:55:19;99584.63;;;16.56;75.57
70314;BME280;57725;47.526;18.986;2023-06-14T03:57:47;99585.16;;;16.61;71.94
70314;BME280;57725;47.526;18.986;2023-06-14T04:00:13;99585.56;;;16.68;74.77
70314;BME280;57725;47.526;18.986;2023-06-14T04:02:41;99596.75;;;16.71;78.30
70314;BME280;57725;47.526;18.986;2023-06-14T04:05:07;99585.47;;;16.69;74.88
70314;BME280;57725;47.526;18.986;2023-06-14T04:07:34;99593.38;;;16.69;75.51
70314;BME280;57725;47.526;18.986;2023-06-14T04:10:06;99587.25;;;16.69;79.77
70314;BME280;57725;47.526;18.986;2023-06-14T04:12:32;99589.38;;;16.63;74.43
70314;BME280;57725;47.526;18.986;2023-06-14T04:14:59;99591.91;;;16.65;75.29
70314;BME280;57725;47.526;18.986;2023-06-14T04:17:28;99597.91;;;16.67;73.23
70314;BME280;57725;47.526;18.986;2023-06-14T04:20:01;99598.56;;;16.71;78.30
70314;BME280;57725;47.526;18.986;2023-06-14T04:22:29;99604.88;;;16.68;75.86
70314;BME280;57725;47.526;18.986;2023-06-14T04:24:55;99603.94;;;16.69;77.40
70314;BME280;57725;47.526;18.986;2023-06-14T04:27:26;99604.94;;;16.79;79.45
70314;BME280;57725;47.526;18.986;2023-06-14T04:29:55;99603.72;;;16.72;75.03
70314;BME280;57725;47.526;18.986;2023-06-14T04:32:27;99603.38;;;16.77;77.15
70314;BME280;57725;47.526;18.986;2023-06-14T04:34:55;99608.66;;;16.77;77.48
70314;BME280;57725;47.526;18.986;2023-06-14T04:37:24;99604.84;;;16.81;78.98
70314;BME280;57725;47.526;18.986;2023-06-14T04:39:55;99602.00;;;16.84;78.33
70314;BME280;57725;47.526;18.986;2023-06-14T04:42:22;99601.09;;;16.72;76.78
70314;BME280;57725;47.526;18.986;2023-06-14T04:44:50;99599.66;;;16.79;79.27
70314;BME280;57725;47.526;18.986;2023-06-14T04:47:23;99601.56;;;16.77;76.75
70314;BME280;57725;47.526;18.986;2023-06-14T04:49:57;99607.06;;;16.74;78.75
70314;BME280;57725;47.526;18.986;2023-06-14T04:52:27;99606.97;;;16.76;78.54
70314;BME280;57725;47.526;18.986;2023-06-14T04:54:56;99607.06;;;16.74;77.90
70314;BME280;57725;47.526;18.986;2023-06-14T04:57:23;99608.88;;;16.74;79.61
70314;BME280;57725;47.526;18.986;2023-06-14T04:59:50;99606.84;;;16.77;79.67
70314;BME280;57725;47.526;18.986;2023-06-14T05:02:20;99608.78;;;16.62;77.14
70314;BME280;57725;47.526;18.986;2023-06-14T05:04:48;99611.44;;;16.62;78.77
70314;BME280;57725;47.526;18.986;2023-06-14T05:07:14;99608.69;;;16.64;78.43
70314;BME280;57725;47.526;18.986;2023-06-14T05:09:46;99611.44;;;16.62;76.99
70314;BME280;57725;47.526;18.986;2023-06-14T05:12:14;99611.00;;;16.69;78.93
70314;BME280;57725;47.526;18.986;2023-06-14T05:14:43;99611.84;;;16.69;78.08
70314;BME280;57725;47.526;18.986;2023-06-14T05:17:11;99604.69;;;16.71;76.71
70314;BME280;57725;47.526;18.986;2023-06-14T05:19:39;99611.91;;;16.80;77.67
70314;BME280;57725;47.526;18.986;2023-06-14T05:22:07;99615.19;;;16.84;75.72
70314;BME280;57725;47.526;18.986;2023-06-14T05:24:35;99615.31;;;16.82;75.41
70314;BME280;57725;47.526;18.986;2023-06-14T05:27:03;99609.78;;;16.85;76.79
70314;BME280;57725;47.526;18.986;2023-06-14T05:29:28;99615.06;;;16.85;76.05
70314;BME280;57725;47.526;18.986;2023-06-14T05:31:54;99619.38;;;16.86;75.72
70314;BME280;57725;47.526;18.986;2023-06-14T05:34:24;99600.91;;;16.86;75.61
70314;BME280;57725;47.526;18.986;2023-06-14T05:36:49;99612.81;;;16.92;75.44
70314;BME280;57725;47.526;18.986;2023-06-14T05:39:15;99614.63;;;16.91;74.92
70314;BME280;57725;47.526;18.986;2023-06-14T05:41:40;99617.38;;;16.90;74.93
70314;BME280;57725;47.526;18.986;2023-06-14T05:44:05;99617.91;;;16.95;74.87
70314;BME280;57725;47.526;18.986;2023-06-14T05:46:31;99611.66;;;16.96;74.59
70314;BME280;57725;47.526;18.986;2023-06-14T05:48:56;99617.53;;;16.99;74.88
70314;BME280;57725;47.526;18.986;2023-06-14T05:51:24;99615.31;;;17.06;74.72
70314;BME280;57725;47.526;18.986;2023-06-14T05:53:50;99612.09;;;17.14;74.30
70314;BME280;57725;47.526;18.986;2023-06-14T05:56:16;99617.06;;;17.18;74.03
70314;BME280;57725;47.526;18.986;2023-06-14T05:58:45;99608.53;;;17.26;74.12
70314;BME280;57725;47.526;18.986;2023-06-14T06:01:11;99608.91;;;17.32;74.61
70314;BME280;57725;47.526;18.986;2023-06-14T06:03:36;99617.25;;;17.39;74.13
70314;BME280;57725;47.526;18.986;2023-06-14T06:06:05;99617.97;;;17.41;74.02
70314;BME280;57725;47.526;18.986;2023-06-14T06:08:32;99615.09;;;17.44;74.35
70314;BME280;57725;47.526;18.986;2023-06-14T06:11:01;99612.09;;;17.49;74.04
70314;BME280;57725;47.526;18.986;2023-06-14T06:13:29;99613.91;;;17.48;74.37
70314;BME280;57725;47.526;18.986;2023-06-14T06:15:54;99609.47;;;17.49;74.66
70314;BME280;57725;47.526;18.986;2023-06-14T06:18:22;99613.22;;;17.57;75.00
70314;BME280;57725;47.526;18.986;2023-06-14T06:20:48;99613.94;;;17.59;75.23
70314;BME280;57725;47.526;18.986;2023-06-14T06:23:15;99612.97;;;17.60;75.15
70314;BME280;57725;47.526;18.986;2023-06-14T06:25:42;99620.72;;;17.63;74.17
70314;BME280;57725;47.526;18.986;2023-06-14T06:28:11;99617.22;;;17.63;74.42
70314;BME280;57725;47.526;18.986;2023-06-14T06:30:36;99624.91;;;17.66;74.78
70314;BME280;57725;47.526;18.986;2023-06-14T06:33:04;99612.69;;;17.65;75.29
70314;BME280;57725;47.526;18.986;2023-06-14T06:35:29;99623.41;;;17.75;75.44
70314;BME280;57725;47.526;18.986;2023-06-14T06:38:00;99609.34;;;17.85;76.52
70314;BME280;57725;47.526;18.986;2023-06-14T06:40:31;99611.91;;;17.98;76.78
70314;BME280;57725;47.526;18.986;2023-06-14T06:42:56;99614.66;;;18.07;75.72
70314;BME280;57725;47.526;18.986;2023-06-14T06:45:24;99612.97;;;18.18;75.87
70314;BME280;57725;47.526;18.986;2023-06-14T06:47:50;99610.84;;;18.23;75.68
70314;BME280;57725;47.526;18.986;2023-06-14T06:50:17;99612.03;;;18.19;73.24
70314;BME280;57725;47.526;18.986;2023-06-14T06:52:45;99614.16;;;18.14;72.74
70314;BME280;57725;47.526;18.986;2023-06-14T06:55:10;99615.00;;;18.14;72.60
70314;BME280;57725;47.526;18.986;2023-06-14T06:57:36;99600.72;;;18.17;74.16
70314;BME280;57725;47.526;18.986;2023-06-14T07:00:07;99599.63;;;18.19;74.04
70314;BME280;57725;47.526;18.986;2023-06-14T07:02:38;99602.50;;;18.16;74.11
70314;BME280;57725;47.526;18.986;2023-06-14T07:05:08;99619.84;;;18.20;74.05
70314;BME280;57725;47.526;18.986;2023-06-14T07:07:34;99621.88;;;18.17;72.50
70314;BME280;57725;47.526;18.986;2023-06-14T07:10:02;99619.47;;;18.14;72.27
70314;BME280;57725;47.526;18.986;2023-06-14T07:12:32;99627.50;;;18.12;72.14
70314;BME280;57725;47.526;18.986;2023-06-14T07:14:59;99626.66;;;18.12;72.36
70314;BME280;57725;47.526;18.986;2023-06-14T07:17:24;99620.56;;;18.11;72.92
70314;BME280;57725;47.526;18.986;2023-06-14T07:19:55;99619.47;;;18.14;73.10
70314;BME280;57725;47.526;18.986;2023-06-14T07:22:23;99613.22;;;18.15;73.61
70314;BME280;57725;47.526;18.986;2023-06-14T07:24:48;99613.22;;;18.15;74.35
70314;BME280;57725;47.526;18.986;2023-06-14T07:27:14;99616.34;;;18.20;73.66
70314;BME280;57725;47.526;18.986;2023-06-14T07:29:39;99609.00;;;18.23;74.20
70314;BME280;57725;47.526;18.986;2023-06-14T07:32:07;99610.34;;;18.29;74.63
70314;BME280;57725;47.526;18.986;2023-06-14T07:34:32;99624.19;;;18.32;75.26
70314;BME280;57725;47.526;18.986;2023-06-14T07:36:57;99618.88;;;18.32;74.34
70314;BME280;57725;47.526;18.986;2023-06-14T07:39:23;99613.59;;;18.32;74.00
70314;BME280;57725;47.526;18.986;2023-06-14T07:41:51;99622.38;;;18.33;73.37
70314;BME280;57725;47.526;18.986;2023-06-14T07:44:16;99626.81;;;18.32;73.18
70314;BME280;57725;47.526;18.986;2023-06-14T07:46:44;99635.84;;;18.30;72.87
70314;BME280;57725;47.526;18.986;2023-06-14T07:49:11;99637.53;;;18.31;73.00
70314;BME280;57725;47.526;18.986;2023-06-14T07:51:39;99637.53;;;18.31;73.74
70314;BME280;57725;47.526;18.986;2023-06-14T07:54:06;99634.03;;;18.30;73.79
70314;BME280;57725;47.526;18.986;2023-06-14T07:56:34;99635.59;;;18.33;73.99
70314;BME280;57725;47.526;18.986;2023-06-14T07:59:01;99631.00;;;18.35;74.32
70314;BME280;57725;47.526;18.986;2023-06-14T08:01:29;99634.25;;;18.38;75.10
70314;BME280;57725;47.526;18.986;2023-06-14T08:03:58;99631.50;;;18.40;74.63
70314;BME280;57725;47.526;18.986;2023-06-14T08:06:26;99641.84;;;18.43;74.37
70314;BME280;57725;47.526;18.986;2023-06-14T08:08:56;99635.59;;;18.44;73.89
70314;BME280;57725;47.526;18.986;2023-06-14T08:11:22;99635.34;;;18.47;74.25
70314;BME280;57725;47.526;18.986;2023-06-14T08:13:51;99635.81;;;18.52;75.01
70314;BME280;57725;47.526;18.986;2023-06-14T08:16:16;99630.31;;;18.55;74.90
70314;BME280;57725;47.526;18.986;2023-06-14T08:18:42;99626.47;;;18.59;74.43
70314;BME280;57725;47.526;18.986;2023-06-14T08:21:07;99625.38;;;18.62;74.59
70314;BME280;57725;47.526;18.986;2023-06-14T08:23:33;99631.28;;;18.65;74.24
70314;BME280;57725;47.526;18.986;2023-06-14T08:26:01;99632.56;;;18.71;74.31
70314;BME280;57725;47.526;18.986;2023-06-14T08:28:29;99629.69;;;18.74;75.01
70314;BME280;57725;47.526;18.986;2023-06-14T08:30:54;99635.94;;;18.73;74.42
70314;BME280;57725;47.526;18.986;2023-06-14T08:33:20;99642.94;;;18.74;73.98
70314;BME280;57725;47.526;18.986;2023-06-14T08:35:46;99643.78;;;18.74;72.90
70314;BME280;57725;47.526;18.986;2023-06-14T08:38:11;99638.59;;;18.73;73.04
70314;BME280;57725;47.526;18.986;2023-06-14T08:40:40;99643.06;;;18.72;73.40
70314;BME280;57725;47.526;18.986;2023-06-14T08:43:07;99646.78;;;18.70;72.66
70314;BME280;57725;47.526;18.986;2023-06-14T08:45:32;99651.22;;;18.69;72.36
70314;BME280;57725;47.526;18.986;2023-06-14T08:48:01;99645.47;;;18.64;72.23
70314;BME280;57725;47.526;18.986;2023-06-14T08:50:27;99663.78;;;18.67;72.64
70314;BME280;57725;47.526;18.986;2023-06-14T08:52:57;99659.44;;;18.66;72.58
70314;BME280;57725;47.526;18.986;2023-06-14T08:55:29;99664.75;;;18.66;69.44
70314;BME280;57725;47.526;18.986;2023-06-14T08:57:56;99666.53;;;18.66;70.40
70314;BME280;57725;47.526;18.986;2023-06-14T09:00:26;99676.06;;;18.68;69.32
70314;BME280;57725;47.526;18.986;2023-06-14T09:02:52;99675.91;;;18.70;68.10
70314;BME280;57725;47.526;18.986;2023-06-14T09:05:24;99680.34;;;18.69;67.64
70314;BME280;57725;47.526;18.986;2023-06-14T09:07:50;99681.09;;;18.71;67.85
70314;BME280;57725;47.526;18.986;2023-06-14T09:10:22;99676.50;;;18.73;69.08
70314;BME280;57725;47.526;18.986;2023-06-14T09:12:55;99675.44;;;18.76;68.52
70314;BME280;57725;47.526;18.986;2023-06-14T09:15:20;99680.63;;;18.77;69.43
70314;BME280;57725;47.526;18.986;2023-06-14T09:17:46;99684.84;;;18.80;68.62
70314;BME280;57725;47.526;18.986;2023-06-14T09:20:12;99688.31;;;18.80;68.01
70314;BME280;57725;47.526;18.986;2023-06-14T09:22:43;99680.63;;;18.77;67.91
70314;BME280;57725;47.526;18.986;2023-06-14T09:25:09;99682.88;;;18.82;69.52
70314;BME280;57725;47.526;18.986;2023-06-14T09:27:34;99679.88;;;18.87;69.53
70314;BME280;57725;47.526;18.986;2023-06-14T09:30:04;99677.00;;;18.90;70.16
70314;BME280;57725;47.526;18.986;2023-06-14T09:32:30;99679.38;;;18.93;69.78
70314;BME280;57725;47.526;18.986;2023-06-14T09:35:00;99676.59;;;18.94;68.45
70314;BME280;57725;47.526;18.986;2023-06-14T09:37:30;99662.50;;;18.94;68.86
70314;BME280;57725;47.526;18.986;2023-06-14T09:39:59;99665.66;;;18.99;68.46
70314;BME280;57725;47.526;18.986;2023-06-14T09:42:24;99664.19;;;19.06;69.27
70314;BME280;57725;47.526;18.986;2023-06-14T09:44:55;99659.22;;;19.12;69.40
70314;BME280;57725;47.526;18.986;2023-06-14T09:47:22;99661.75;;;19.14;68.52
70314;BME280;57725;47.526;18.986;2023-06-14T09:49:48;99655.94;;;19.20;67.53
70314;BME280;57725;47.526;18.986;2023-06-14T09:52:18;99653.03;;;19.34;67.26
70314;BME280;57725;47.526;18.986;2023-06-14T09:54:49;99649.28;;;19.37;65.86
70314;BME280;57725;47.526;18.986;2023-06-14T09:57:21;99651.41;;;19.43;63.44
70314;BME280;57725;47.526;18.986;2023-06-14T09:59:53;99649.22;;;19.48;63.94
70314;BME280;57725;47.526;18.986;2023-06-14T10:02:29;99643.06;;;19.59;66.82
70314;BME280;57725;47.526;18.986;2023-06-14T10:05:06;99641.69;;;19.64;66.30
70314;BME280;57725;47.526;18.986;2023-06-14T10:07:53;99637.56;;;19.71;66.52
70314;BME280;57725;47.526;18.986;2023-06-14T10:10:23;99639.25;;;19.72;63.61
70314;BME280;57725;47.526;18.986;2023-06-14T10:12:48;99641.63;;;19.75;63.51
70314;BME280;57725;47.526;18.986;2023-06-14T10:15:23;99640.72;;;19.86;62.98
70314;BME280;57725;47.526;18.986;2023-06-14T10:18:00;99634.19;;;19.90;62.94
70314;BME280;57725;47.526;18.986;2023-06-14T10:20:31;99634.06;;;19.92;60.00
70314;BME280;57725;47.526;18.986;2023-06-14T10:23:11;99633.72;;;19.85;60.40
70314;BME280;57725;47.526;18.986;2023-06-14T10:25:38;99634.97;;;19.81;57.97
70314;BME280;57725;47.526;18.986;2023-06-14T10:28:22;99635.94;;;19.80;60.09
70314;BME280;57725;47.526;18.986;2023-06-14T10:31:08;99635.34;;;19.76;59.04
70314;BME280;57725;47.526;18.986;2023-06-14T10:36:26;99631.63;;;19.79;58.30
70314;BME280;57725;47.526;18.986;2023-06-14T10:39:04;99629.56;;;19.82;56.13
70314;BME280;57725;47.526;18.986;2023-06-14T10:41:34;99629.72;;;19.91;59.11
70314;BME280;57725;47.526;18.986;2023-06-14T10:46:40;99633.03;;;20.04;59.54
70314;BME280;57725;47.526;18.986;2023-06-14T10:49:17;99626.63;;;20.06;58.08
70314;BME280;57725;47.526;18.986;2023-06-14T10:51:51;99624.66;;;20.08;60.33
70314;BME280;57725;47.526;18.986;2023-06-14T10:54:21;99622.59;;;20.12;59.43
70314;BME280;57725;47.526;18.986;2023-06-14T10:56:52;99620.50;;;20.15;57.06
70314;BME280;57725;47.526;18.986;2023-06-14T10:59:19;99619.25;;;20.19;57.94
70314;BME280;57725;47.526;18.986;2023-06-14T11:04:17;99623.50;;;20.32;57.59
70314;BME280;57725;47.526;18.986;2023-06-14T11:06:50;99619.16;;;20.31;56.55
70314;BME280;57725;47.526;18.986;2023-06-14T11:11:58;99611.16;;;20.21;56.30
70314;BME280;57725;47.526;18.986;2023-06-14T11:14:31;99612.31;;;20.18;55.99
70314;BME280;57725;47.526;18.986;2023-06-14T11:16:57;99602.78;;;20.16;55.39
70314;BME280;57725;47.526;18.986;2023-06-14T11:19:22;99604.84;;;20.12;56.56
70314;BME280;57725;47.526;18.986;2023-06-14T11:21:48;99608.22;;;20.14;56.77
70314;BME280;57725;47.526;18.986;2023-06-14T11:24:16;99607.97;;;20.17;56.74
70314;BME280;57725;47.526;18.986;2023-06-14T11:26:47;99598.31;;;20.16;56.25
70314;BME280;57725;47.526;18.986;2023-06-14T11:29:14;99610.63;;;20.17;56.06
70314;BME280;57725;47.526;18.986;2023-06-14T11:31:43;99612.97;;;20.20;54.75
70314;BME280;57725;47.526;18.986;2023-06-14T11:34:12;99612.47;;;20.27;55.66
70314;BME280;57725;47.526;18.986;2023-06-14T11:36:41;99613.72;;;20.32;57.10
70314;BME280;57725;47.526;18.986;2023-06-14T11:39:11;99614.22;;;20.37;56.34
70314;BME280;57725;47.526;18.986;2023-06-14T11:41:38;99612.69;;;20.44;59.12
70314;BME280;57725;47.526;18.986;2023-06-14T11:44:05;99606.72;;;20.52;58.99
70314;BME280;57725;47.526;18.986;2023-06-14T11:46:33;99608.25;;;20.54;59.07
70314;BME280;57725;47.526;18.986;2023-06-14T11:48:58;99605.91;;;20.61;57.29
70314;BME280;57725;47.526;18.986;2023-06-14T11:51:30;99611.81;;;20.65;57.81
70314;BME280;57725;47.526;18.986;2023-06-14T11:53:56;99600.34;;;20.64;56.77
70314;BME280;57725;47.526;18.986;2023-06-14T11:56:26;99600.03;;;20.67;57.46
70314;BME280;57725;47.526;18.986;2023-06-14T11:58:55;99606.91;;;20.70;57.93
70314;BME280;57725;47.526;18.986;2023-06-14T12:01:22;99606.38;;;20.76;58.41
70314;BME280;57725;47.526;18.986;2023-06-14T12:03:52;99608.19;;;20.75;58.24
70314;BME280;57725;47.526;18.986;2023-06-14T12:06:26;99613.78;;;20.72;59.71
70314;BME280;57725;47.526;18.986;2023-06-14T12:09:02;99617.66;;;20.68;58.18
70314;BME280;57725;47.526;18.986;2023-06-14T12:11:32;99616.09;;;20.66;56.98
70314;BME280;57725;47.526;18.986;2023-06-14T12:14:03;99605.66;;;20.64;58.40
70314;BME280;57725;47.526;18.986;2023-06-14T12:16:38;99608.56;;;20.61;57.76
70314;BME280;57725;47.526;18.986;2023-06-14T12:19:15;99614.59;;;20.63;59.41
70314;BME280;57725;47.526;18.986;2023-06-14T12:21:42;99607.72;;;20.60;58.59
70314;BME280;57725;47.526;18.986;2023-06-14T12:24:11;99616.41;;;20.63;57.23
70314;BME280;57725;47.526;18.986;2023-06-14T12:26:42;99611.22;;;20.61;57.20
70314;BME280;57725;47.526;18.986;2023-06-14T12:29:08;99614.59;;;20.63;56.67
70314;BME280;57725;47.526;18.986;2023-06-14T12:31:33;99619.78;;;20.65;57.55
70314;BME280;57725;47.526;18.986;2023-06-14T12:33:59;99618.94;;;20.64;57.23
70314;BME280;57725;47.526;18.986;2023-06-14T12:36:25;99620.44;;;20.67;57.88
70314;BME280;57725;47.526;18.986;2023-06-14T12:38:51;99615.97;;;20.67;57.81
70314;BME280;57725;47.526;18.986;2023-06-14T12:41:22;99620.44;;;20.67;56.83
70314;BME280;57725;47.526;18.986;2023-06-14T12:43:48;99620.31;;;20.68;58.13
70314;BME280;57725;47.526;18.986;2023-06-14T12:46:17;99611.94;;;20.73;58.18
70314;BME280;57725;47.526;18.986;2023-06-14T12:48:44;99610.13;;;20.73;57.49
70314;BME280;57725;47.526;18.986;2023-06-14T12:51:10;99611.53;;;20.77;58.85
70314;BME280;57725;47.526;18.986;2023-06-14T12:53:37;99620.19;;;20.79;59.14
70314;BME280;57725;47.526;18.986;2023-06-14T12:56:06;99607.75;;;20.80;60.05
70314;BME280;57725;47.526;18.986;2023-06-14T12:58:31;99612.81;;;20.83;59.04
70314;BME280;57725;47.526;18.986;2023-06-14T13:00:56;99606.66;;;20.82;59.61
70314;BME280;57725;47.526;18.986;2023-06-14T13:03:22;99604.84;;;20.83;58.64
70314;BME280;57725;47.526;18.986;2023-06-14T13:05:47;99612.81;;;20.83;58.37
70314;BME280;57725;47.526;18.986;2023-06-14T13:08:12;99606.66;;;20.82;58.54